This is the latest recevied weather packets stored in our database for station/object KC5TIL-3. If no packets are shown the sender has not sent any weather packets the latest 10 day(s).
| Time | Temp. | Humidity | Pressure | Rain* | Wind** | Luminosity | Snow |
|---|---|---|---|---|---|---|---|
| 1787784876 | 37.22° C | 15% | 1009.8 hPa | 0 mm | 2.24 m/s, 197° | - | - |
| 1787784578 | 37.22° C | 15% | 1009.8 hPa | 0 mm | 2.24 m/s, 210° | - | - |
| 1787784280 | 37.22° C | 15% | 1009.8 hPa | 0 mm | 1.34 m/s, 206° | - | - |
| 1787783979 | 37.22° C | 15% | 1009.8 hPa | 0 mm | 1.34 m/s, 213° | - | - |
| 1787783681 | 37.22° C | 15% | 1009.8 hPa | 0 mm | 0 m/s | - | - |
| 1787783382 | 37.22° C | 15% | 1009.8 hPa | 0 mm | 0 m/s | - | - |
| 1787783081 | 37.22° C | 15% | 1009.8 hPa | 0 mm | 1.34 m/s, 272° | - | - |
| 1787782783 | 37.22° C | 15% | 1009.8 hPa | 0 mm | 0 m/s | - | - |
| 1787782485 | 36.67° C | 15% | 1009.8 hPa | 0 mm | 2.24 m/s, 31° | - | - |
| 1787782183 | 36.67° C | 13% | 1009.8 hPa | 0 mm | 3.13 m/s, 22° | - | - |
| 1787781885 | 37.22° C | 13% | 1009.8 hPa | 0 mm | 1.79 m/s, 296° | - | - |
| 1787781587 | 37.22° C | 13% | 1010.8 hPa | 0 mm | 1.79 m/s, 333° | - | - |
| 1787781285 | 37.22° C | 15% | 1010.8 hPa | 0 mm | 0 m/s | - | - |
| 1787780987 | 37.22° C | 15% | 1010.8 hPa | 0 mm | 0 m/s | - | - |
| 1787780689 | 37.22° C | 15% | 1010.8 hPa | 0 mm | 1.79 m/s, 234° | - | - |
| 1787780388 | 36.67° C | 15% | 1010.8 hPa | 0 mm | 1.79 m/s, 288° | - | - |
| 1787780090 | 37.22° C | 15% | 1010.8 hPa | 0 mm | 1.79 m/s, 329° | - | - |
| 1787779792 | 37.22° C | 15% | 1010.8 hPa | 0 mm | 1.79 m/s, 276° | - | - |
| 1787779490 | 37.22° C | 15% | 1010.8 hPa | 0 mm | 1.79 m/s, 342° | - | - |
| 1787779192 | 37.22° C | 15% | 1010.8 hPa | 0 mm | 0 m/s | - | - |
| 1787778894 | 37.22° C | 15% | 1010.8 hPa | 0 mm | 1.34 m/s, 312° | - | - |
| 1787778592 | 36.67° C | 15% | 1010.8 hPa | 0 mm | 1.79 m/s, 311° | - | - |
| 1787778294 | 37.22° C | 15% | 1010.8 hPa | 0 mm | 1.34 m/s, 280° | - | - |
| 1787777996 | 36.67° C | 15% | 1011.8 hPa | 0 mm | 1.79 m/s, 286° | - | - |
| 1787777695 | 37.22° C | 15% | 1011.8 hPa | 0 mm | 1.34 m/s, 275° | - | - |
* Rain latest hour (hover to see other rain measurements)
** Current wind speed in m/s (hover to see current wind gust speed)